Flight Track Log - Related Links

Times and Time Zones

All times are in EDT time to prevent confusion due to time zone crossing. See the JZA7651 flight status page for this flight to view local times or setup timezone preferences in your user account.

Time Position Orientation Groundspeed Altitude Reporting Facility
EDT Latitude Longitude Course Direction KTS MPH feet Rate Location/Type
Fri 09:01:14 PM 38.7833 -77.0333 342° North 197 227 3,500  Level Potomac TRACON
Fri 09:02:14 PM 38.7333 -77.0667 207° Southwest 269 310 5,000 2,133 Climbing Potomac TRACON
Fri 09:04:14 PM 38.7167 -77.2667 264° West 288 331 9,900 2,467 Climbing Potomac TRACON
Fri 09:05:14 PM 38.7833 -77.3167 330° Northwest 299 344 12,400 2,316 Climbing Potomac TRACON
Fri 09:06:00 PM 39.5605 -77.4093 342° North  Level FlightAware Approximate
Fri 09:06:08 PM 38.8500 -77.3667 330° Northwest 292 336 14,300  Level Potomac TRACON
Fri 09:07:14 PM 38.9500 -77.4167 339° North 281 323 16,400 900 Climbing Potomac TRACON
Fri 09:09:08 PM 39.1258 -77.4700 347° North 368 423 17,000 207 Climbing Washington Center
Fri 09:10:08 PM 39.2408 -77.4622 North 384 442 17,000 737 Level Washington Center
Fri 09:12:07 PM 39.4589 -77.4589 North 413 475 19,200 1,247 Climbing New York Center
Fri 09:13:06 PM 39.5714 -77.4589 360° North 406 467 20,700 1,488 Climbing New York Center
Fri 09:14:08 PM 39.6842 -77.4561 North 401 461 22,200 1,475 Climbing New York Center
Fri 09:15:08 PM 39.7903 -77.4231 13° North 401 461 23,700 1,513 Climbing New York Center
Fri 09:16:07 PM 39.8883 -77.3511 29° Northeast 393 452 25,200 1,500 Climbing New York Center
Fri 09:17:08 PM 39.9944 -77.3175 14° North 393 452 26,700 1,361 Climbing New York Center
Fri 09:18:06 PM 40.0961 -77.2864 13° North 382 440 27,900 1,050 Climbing New York Center
Fri 09:19:08 PM 40.1978 -77.2581 12° North 377 434 28,800 893 Climbing New York Center
Fri 09:20:07 PM 40.3039 -77.2269 13° North 377 434 29,700 843 Climbing New York Center
Fri 09:21:09 PM 40.4078 -77.1931 14° North 382 440 30,500 744 Climbing New York Center
Fri 09:22:08 PM 40.5178 -77.1625 12° North 382 440 31,200 650 Climbing New York Center
Fri 09:23:09 PM 40.6281 -77.1289 13° North 387 445 31,800 595 Climbing New York Center
Fri 09:24:09 PM 40.7361 -77.0950 13° North 393 452 32,400 615 Climbing New York Center
Fri 09:25:06 PM 40.8461 -77.0642 12° North 398 458 33,000 308 Climbing New York Center
Fri 09:26:06 PM 40.9606 -77.0281 13° North 398 458 33,000  Level New York Center
Fri 09:27:07 PM 41.0728 -76.9942 13° North 403 464 33,000  Level New York Center
Fri 09:28:08 PM 41.1850 -76.9603 13° North 403 464 33,000  Level New York Center
Fri 09:29:08 PM 41.2975 -76.9236 14° North 403 464 33,000  Level New York Center
Fri 09:30:09 PM 41.4053 -76.8922 12° North 403 464 33,000  Level New York Center
Fri 09:31:06 PM 41.5283 -76.8506 14° North 403 464 33,000  Level New York Center
Fri 09:32:07 PM 41.6406 -76.8136 14° North 403 464 33,000  Level New York Center
Fri 09:34:22 PM 41.8850 -76.7408 12° North 425 489 33,000  Level Boston Center
Fri 09:35:23 PM 41.9969 -76.7064 13° North 425 489 33,000  Level Boston Center
Fri 09:36:24 PM 42.1089 -76.6719 13° North 412 474 33,000  Level Boston Center
Fri 09:37:34 PM 42.2206 -76.6347 14° North 412 474 33,000  Level Boston Center
Fri 09:38:34 PM 42.3600 -76.5906 13° North 423 487 33,000  Level Boston Center
Fri 09:39:34 PM 42.4739 -76.5561 13° North 418 481 33,000  Level Boston Center
Fri 09:40:46 PM 42.5878 -76.5156 15° North 418 481 33,000  Level Boston Center
Fri 09:41:46 PM 42.7269 -76.4739 12° North 418 481 33,000  Level Boston Center
Fri 09:42:46 PM 42.8533 -76.4339 13° North 418 481 33,000  Level Boston Center
Fri 09:43:47 PM 42.9675 -76.3961 14° North 418 481 33,000  Level Boston Center
Fri 09:44:47 PM 43.0833 -76.3581 13° North 418 481 33,000  Level Boston Center
Fri 09:45:47 PM 43.1972 -76.3225 13° North 418 481 33,000  Level Boston Center
Fri 09:46:48 PM 43.3111 -76.2811 15° North 418 481 33,000  Level Boston Center
Fri 09:47:47 PM 43.4250 -76.2456 13° North 418 481 33,000 -102 Level Boston Center
Fri 09:48:46 PM 43.5408 -76.2042 15° North 418 481 32,800 -645 Descending Boston Center
Fri 09:49:48 PM 43.6569 -76.1683 13° North 418 481 31,700 -1,041 Descending Boston Center
Fri 09:50:47 PM 43.7769 -76.1269 14° North 423 487 30,700 -1,008 Descending Boston Center
Fri 09:51:47 PM 43.8972 -76.0853 14° North 435 501 29,700 -992 Descending Boston Center
Fri 09:52:48 PM 44.0075 -76.0197 23° Northeast 435 501 28,700 -857 Descending Boston Center
Fri 09:53:46 PM 44.1128 -75.9247 33° Northeast 435 501 28,000 -857 Descending Boston Center
Fri 09:54:47 PM 44.2175 -75.8325 32° Northeast 440 506 27,000 -976 Descending Boston Center
Fri 09:55:49 PM 44.3142 -75.7306 37° Northeast 440 506 26,000 -992 Descending Boston Center
Fri 09:56:48 PM 44.3992 -75.6044 47° Northeast 440 506 25,000 -1,008 Descending Boston Center
Fri 09:57:48 PM 44.4858 -75.4781 46° Northeast 435 501 24,000 -992 Descending Boston Center
Fri 09:58:49 PM 44.5703 -75.3600 45° Northeast 440 506 23,000 -1,017 Descending Boston Center
Fri 09:59:46 PM 44.6567 -75.2331 46° Northeast 440 506 22,000 -984 Descending Boston Center
Fri 10:00:51 PM 44.7333 -75.1000 51° Northeast 430 495 21,000 -912 Descending Montreal Center
Fri 10:01:51 PM 44.8167 -74.9833 45° Northeast 430 495 20,100 -1,000 Descending Montreal Center
Fri 10:02:51 PM 44.9000 -74.8500 49° Northeast 430 495 19,000 -1,800 Descending Montreal Center
Fri 10:03:51 PM 44.9833 -74.7333 45° Northeast 420 483 16,500 -2,700 Descending Montreal Center
Fri 10:04:51 PM 45.0500 -74.6167 51° Northeast 380 437 13,600 -2,850 Descending Montreal Center
Fri 10:05:51 PM 45.1167 -74.5167 47° Northeast 350 403 10,800 -1,950 Descending Montreal Center
Fri 10:06:51 PM 45.1500 -74.4000 68° East 310 357 9,700 -1,400 Descending Montreal Center
Fri 10:07:51 PM 45.2000 -74.2833 59° Northeast 290 334 8,000 -1,600 Descending Montreal Center
Fri 10:08:51 PM 45.2333 -74.1833 65° Northeast 280 322 6,500 -1,500 Descending Montreal Center
Fri 10:09:51 PM 45.2333 -74.1167 90° East 260 299 5,000 -1,500 Descending Montreal Center
Fri 10:10:51 PM 45.2667 -74.0167 65° Northeast 250 288 3,500 -1,000 Descending Montreal Center
Fri 10:11:51 PM 45.3000 -73.9500 55° Northeast 210 242 3,000 -400 Descending Montreal Center
Fri 10:12:51 PM 45.3500 -73.9000 35° Northeast 200 230 2,700 -650 Descending Montreal Center
Fri 10:13:51 PM 45.3833 -73.8167 60° Northeast 200 230 1,700 -950 Descending Montreal Center
Fri 10:14:51 PM 45.4167 -73.8000 19° North 150 173 800 -750 Descending Montreal Center
Fri 10:15:51 PM 45.4500 -73.7500 46° Northeast 130 150 200 -350 Descending Montreal Center
Fri 10:16:51 PM 45.4500 -73.7500 46° Northeast 10 12 100 -100 Descending Montreal Center

Login

Don't have an account? Register now (free) for customized features, flight alerts, and more!